Current Conditions
Clear
Conditions



Pressure
30 (inHG) - 1015.92 (mb)
Visibility

10.0 (mimiles) - 16.1 (km)
   Temperature
90  °F
32°C
75  °F
Dewpoint
63  %
 Humidity
   Wind Speed
13  mph
11  kts
21  km/h
5.8  m/s
   Wind Direction
 180°
Due South
   Airport Data
KMYR
Location Myrtle Beach International 2 mi (3.22 km)
Metar :KMYR 262156Z 18011KT 10SM CLR 32/24 A3000 RMK AO2 SLP157 T03220244
Sun 26th May 16:56 pm
   Raw Metar Info
Raw METAR is the most common format in the world for the transmission of observational weather data. It is highly standardized through the International Civil Aviation Organization (ICAO), which allows it to be understood throughout most of the world.
   API Info
Data Provided by
https://www.checkwx.com/weather/KMYR
   © Info
CSS/SVG/PHP scripts were developed by weather34.com for use in the weather34 template © 2015-2019

Guide Info provided by Metar-Wikipedia